ImprimablePdf
Antwerp, 25/04/2010, BEL - DVV Antwerp Marathon & 10 Miles
Liste des rapports > Marathon - 30km
Recherche: Page: 1 2 [3] 4 5 6 7 8
1545 Entrées
 
Les réclamations ne sont plus acceptées, les résultats sont considérés comme définitifs.
Catégorie
PosNrNomAgeIOCEquipeTempsTkmMoy.RangNomLocalité
401.1007WITHOFS JAN41BEL2:26:504:54 12.2682M40BILZEN
402.492DUBOIS DAVID43FRA2:26:504:54 12.2683M40WERVCQ SUD
403.572KERSTENS KARL44BEL2:26:524:54 12.2684M40BERCHEM
404.1160MACHIELSEN ROBBIE37NLD2:26:534:54 12.2665M35BREDA
405.516FJANSSENS HEIDI35BEL2:26:534:54 12.263F35ICHTEGEM
406.939MATTHYS HERBERT46BEL2:26:584:54 12.25101M45KESSEL-LO
407.1444PASCAL DEMAN45FRA2:27:024:55 12.24102M45HAVERSKERQUE
408.57NOBEN PHILIP35BEL2:27:024:55 12.2466M35MORTSEL
409.1526DE NECKERE DIDIER42BEL2:27:054:55 12.2485M40KILLEM (FRANKRIJK)
410.2479GILBERT KEN30BEL2:27:174:55 12.2274SEHHULDENBERG
411.2478PAS OLIVIER31BEL2:27:174:55 12.2275SEHOVERIJSE
412.2382DENYFT ERIK41BEL2:27:234:55 12.2186M40SINT-MICHIELS
413.190VAN VAERENBERGH GEERT49BEL2:27:244:55 12.21103M45ASPELARE
414.1185SYSMANS PAUL48BEL2:27:264:55 12.21104M45VOSSELAAR
415.2105HELLEMANS Marc47BEL2:27:274:55 12.21105M45
416.1200VAN SCHAP MICHAEL34BEL2:27:384:56 12.1976SEHMECHELEN
417.439CATTEAU BEN35BEL2:27:384:56 12.1967M35GENTBRUGGE
418.1037VAN DER BEKEN WIM46BEL2:27:384:56 12.19106M45EDEGEM
419.2351NAGELS WIM45BEL2:27:394:56 12.19107M45DUFFEL
420.897FDRUYTS LEENTJE40BEL2:27:454:56 12.184F40HOBOKEN
421.60MALVOISIN JEROME26BEL2:27:464:56 12.1877SEHTOURNAI
422.2332VANDERBEKEN DIRK52BEL2:27:514:56 12.1736M50OOSTAKKER
423.1247VERELST PETER49BEL2:27:514:56 12.17108M45MORTSEL
424.854AMBROOS MARIO38BEL2:27:534:56 12.1768M35ANTWERPEN 2
425.750VAN DE POL GUST50BEL2:27:564:56 12.1737M50OUD-TURNHOUT
426.452SCHOLZ KARL54BEL2:28:004:56 12.1638M50ALKEN
427.2301PEETERS KAREL54BEL2:28:024:57 12.1639M50TEMSE
428.1036BAELE CARL41BEL2:28:054:57 12.1687M40BEERNEM
429.270LEDAINE TOM38BEL2:28:064:57 12.1669M35STERREBEEK
430.1500BILLET ANDRE50BEL2:28:114:57 12.1540M50WUUSTWEZEL
431.941D'HERDE MARC45BEL2:28:114:57 12.15109M45NIVELLES
432.1231WINNEN PAUL55BEL2:28:124:57 12.1510M55VELTEM-BEISEM
433.2253ENGELEN DAVID40BEL2:28:124:57 12.1588M40KRUIBEKE
434.1283MARIEN SIGE39BEL2:28:154:57 12.1470M35HEMISKEM
435.347CAROL ROBERT46NLD2:28:154:57 12.14110M45MIDDELBURG
436.884MAZZOTTA RAFFAELE28FRA2:28:154:57 12.1478SEHHALLUIN
437.2473VAN HEMELDONCK Serge54BEL2:28:154:57 12.1441M50BERCHEM
438.1324BONTE THIBAULT20BEL2:28:154:57 12.1479SEHSINT-MARTENS-LATEM
439.1138VETS RUDI46BEL2:28:174:57 12.14111M45BOECHOUT
440.1405VERSTICHEL BRECHT25BEL2:28:184:57 12.1480SEHGENT
441.297LENAERTS BENJAMIN30BEL2:28:194:57 12.1481SEHTIENEN
441.2480VAN LOON WERNER48BEL2:28:194:57 12.14112M45MORTSEL
443.2418LAUWERS STEFAAN51BEL2:28:204:57 12.1442M50GENT
444.520FGEEROMS GRIET48BEL2:28:234:57 12.137F45DUFFEL
445.915VAN BRAGT PETER51BEL2:28:244:57 12.1343M50BERCHEM (ANTWERPEN)
446.1291VAN LAERHOVEN RUDY37BEL2:28:244:57 12.1371M35STABROEK
447.1546DE CLIPPELEER Stefan32BEL2:28:254:57 12.1382SEH
448.1504STEENBEKE GEERT49BEL2:28:264:57 12.13113M45LOVENDEGEM
449.681MERKEN VALLY48BEL2:28:294:57 12.12114M45HOESELT
450.1536WAUTERS GUIDO50BEL2:28:294:57 12.1244M50AARTSELAAR
451.2315MOSTMANS SAMUEL46BEL2:28:304:57 12.12115M45BEVEREN
452.887BUDTS GUY34BEL2:28:304:57 12.1283SEHKALMTHOUT
453.871POPPE PATRICK52BEL2:28:314:58 12.1245M50BORSBEEK
454.2278DE BLOCK BENNY52BEL2:28:324:58 12.1246M50BEVEREN-WAAS
455.1245DEWILDE EDDY53BEL2:28:334:58 12.1247M50IEPER
456.2377KEYGNAERT WIM39BEL2:28:334:58 12.1272M35GENT
457.2444THOLLEBEEK Luc50BEL2:28:344:58 12.1248M50GROBBENDONK
458.703SCHNIERMANNI CONSTANT A.M.W.51POL2:28:354:58 12.1249M50SZCZECIN
459.495ZWINNEN SVEN46BEL2:28:354:58 12.12116M45MELSELE
460.1166MOSTMANS JOHAN47BEL2:28:364:58 12.11117M45WORTEL
461.1098ALENS JAN39BEL2:28:364:58 12.1173M35ZOERSEL
462.1117DE ROCKERE MARC42BEL2:28:364:58 12.1189M40DEURNE (ANTWERPEN)
463.2326RAINERI RENATO50BEL2:28:364:58 12.1150M50GENK
464.1407PEETERS RAF39BEL2:28:374:58 12.1174M35MALLE
465.436STANDAERT DOMINIQUE32BEL2:28:374:58 12.1184SEHTUBIZE
466.739SEMPELS JOERI28BEL2:28:384:58 12.1185SEHNIJLEN
467.583VERSCHAEVE BART35BEL2:28:384:58 12.1175M35PITTEM
468.584DEPROOST HENK38BEL2:28:404:58 12.1176M35KORTEMARK
469.2063MEESTERS Karl31BEL2:28:414:58 12.1186SEH
470.1457VERHOEVEN JURGEN39BEL2:28:414:58 12.1177M35BOUWEL
471.820HEUGHEBAERT PATRICK43BEL2:28:414:58 12.1190M40POPERINGE
472.202TORFS ALAIN47BEL2:28:424:58 12.11118M45OPDORP
473.836KUYPERS EDOUARD56BEL2:28:434:58 12.1011M55LOUVAIN-LA-NEUVE
474.1371KARASEVS MARTINS28IRE2:28:444:58 12.1087SEHDUNDALK
474.773PIPELEERS KRIS33BEL2:28:444:58 12.1087SEH'S GRAVENVOEREN
476.1284DE SCHRIJVER DANNY47BEL2:28:444:58 12.10119M45PAAL
477.1029VANDER VEKEN PETER51BEL2:28:464:58 12.1051M50KALMTHOUT
478.1031FELST NICOLE51BEL2:28:464:58 12.101F50KALMTHOUT
479.1805NELSEN Fernand60BEL2:28:464:58 12.106M60
480.616WITTENBERG GEERT54BEL2:28:464:58 12.1052M50GERAARDSBERGEN
481.1045BRACKE PIET44BEL2:28:474:58 12.1091M40SINT-AMANDSBERG
482.776NELISSEN BURT43BEL2:28:474:58 12.1092M40HASSELT
483.2388BROECKHOVE Hobert37BEL2:28:484:58 12.1078M35SINT-AMANDSBERG
484.1115BOOSTEN KOEN36BEL2:28:494:58 12.1079M35BREE
485.2337D'ATTARDI OLIVIER39BEL2:28:514:58 12.0980M35HERMEE
486.1193DEPAS MARCEL65BEL2:28:524:58 12.092M65SERAING
487.505BOMERE KURT42BEL2:28:534:58 12.0993M40AALTER
488.1121MUS HANS42BEL2:28:544:58 12.0994M40SCHELLE
489.1458PEETERS PATRICK42BEL2:28:554:58 12.0995M40GEEL
490.272NALES EMILE43NLD2:28:574:58 12.0996M40GRONINGEN
491.503FERON RAYMOND41NLD2:28:584:58 12.0897M40BEEK
492.1353TEMMERMAN PATRICK45BEL2:28:584:58 12.08120M45KAPRIJKE
493.275LESSELIERS MICHEL36BEL2:28:584:58 12.0881M35ANTWERPEN 1
494.90DEWOLF FABRICE45FRA2:28:594:58 12.08121M45MARCQ EN BAROEUL
495.179KENNEDY JOHN46BEL2:28:594:58 12.08122M45TEVRUEN
496.445KOMMER JOHN40NLD2:29:004:58 12.0898M40SCHOUWEN-DUIVELAND
497.904BOONEN CHRIS39BEL2:29:014:59 12.0882M35MEER
498.2091CASSIERS MichelBEL2:29:014:59 12.08-
499.1126CHRISTIAENS THOMAS29BEL2:29:014:59 12.0889SEHGENT
500.225SCHATTEMAN PATRICK58BEL2:29:024:59 12.0812M55DRONGEN
501.1174HATTAS WERNER50BEL2:29:024:59 12.0853M50WOMMELGEM
502.718DAVI PAOLO29BEL2:29:024:59 12.0890SEHIXELLES
503.1078IDRISSI MO58NLD2:29:044:59 12.0813M55HEEMSKERK
504.730JANSSENS PIETER32BEL2:29:064:59 12.0791SEHKONINGSHOOIKT
505.1220KUMMELER CHRISTOPHE44BEL2:29:064:59 12.0799M40WELKENRAEDT
505.2043SAMUEL Ronny ABEL2:29:064:59 12.07-
507.843FSIBBEL TOKE52NLD2:29:094:59 12.072F50AMSTERDAM
508.1181DE KOCK PAUL44BEL2:29:124:59 12.07100M40KALMTHOUT
509.1086LOOS CHRIS43BEL2:29:134:59 12.06101M40HOEGAARDEN
510.2360BRITS PASCAL43BEL2:29:134:59 12.06102M40SINT-KATELIJNE-WAVER
511.902LIEFSOENS DIRK48BEL2:29:134:59 12.06123M45LUMMEN
512.1523BOSSANT SERGE42BEL2:29:134:59 12.06103M40RUISBROEK
513.620FHOUBAER ANN38BEL2:29:164:59 12.064F35ROSMEER
514.1190SMETS PASCAL46BEL2:29:194:59 12.06124M45BEGIJNENDIJK
515.651BUYSENS YVES45BEL2:29:194:59 12.06125M45DEERLIJK
516.1354VAN DE GENACHTE EDDY43BEL2:29:214:59 12.05104M40EEKLO
517.575VERDOOLAEGHE PATRICK35BEL2:29:234:59 12.0583M35MALDEGEM
518.249GRAVE EMMANUEL34FRA2:29:234:59 12.0592SEHCRETEIL
519.409WAUTERS WIM41BEL2:29:234:59 12.05105M40AALST
520.934WYNEN MARC38BEL2:29:244:59 12.0584M35WIJNEGEM
521.1522RUCKEBUSCH BART38BEL2:29:254:59 12.0585M35VLISSEGEM
522.1807COSSET PhilippeBEL2:29:284:59 12.04-
523.1334JONKERS ARN19BEL2:29:315:00 12.0493SEHWUUSTWEZEL
524.1177BROCKHOVEN NICO42BEL2:29:395:00 12.03106M40HAM
525.535L'HOIR GAETAN33BEL2:29:405:00 12.0394SEHWAVRE
526.1169STORME DIRK52BEL2:29:465:00 12.0254M50ZWALM
527.534VERHEYEN JOHAN26BEL2:29:485:00 12.0295SEHKONTICH
528.891VERLINDEN WALTER38BEL2:29:515:00 12.0186M35HULSHOUT
529.966DE POOTER DIRK47BEL2:29:515:00 12.01126M45ITEGEM
530.566DE VISSCHER KRIS40BEL2:29:515:00 12.01107M40VOSSELAAR
531.1151VAN GOOL DIETER39BEL2:29:565:00 12.0187M35MERKSEM (ANTWERPEN)
532.1827ROLAND Marc46BEL2:29:575:00 12.00127M45
533.1454VAN MOORTEL KEVIN32BEL2:29:595:00 12.0096SEHOOSTENDE
534.362WOLK FRANK34BEL2:30:005:00 12.0097SEHLIEGE
535.2029DIAZ_GAVIER Patricio62BEL2:30:005:00 12.007M60
536.281TRIOEN CARL45BEL2:30:015:01 12.00128M45KONTICH
537.2021ROOBROUCK Pascal44BEL2:30:035:01 12.00108M40
538.895COLONNA MARCO42BEL2:30:045:01 11.99109M40KOEKELBERG
539.999BOURCY ERIC50BEL2:30:065:01 11.9955M50ROCHEFORT
540.1533FRANCK PETER40BEL2:30:085:01 11.99110M40NIEL
541.847HAUSTRATE FRED44BEL2:30:115:01 11.99111M40PIPAIX
542.1381KEYSERS PATRICK44BEL2:30:115:01 11.99112M40WESTMALLE
543.2343BISSCHOPS PATRICK40BEL2:30:145:01 11.98113M40MORTSEL
544.1120JANSSENS CHRIS42BEL2:30:175:01 11.98114M40BRASSCHAAT
545.728VAN DER VORST LUC56BEL2:30:245:01 11.9714M55HOFSTADE (BT.)
546.630VAN DEN BOGAERT HERMAN41BEL2:30:265:01 11.97115M40WOMMELGEM
547.1217VRANCKAERT EDDY47BEL2:30:295:01 11.96129M45LONDERZEEL
548.1550CALLENS Rik53BEL2:30:295:01 11.9656M50
549.1266KUSTERMANS ANTOON52BEL2:30:305:01 11.9657M50KALMTHOUT
550.1109GUILBERT THIERRY39FRA2:30:305:01 11.9688M35NABRINGHEN
551.1114SERGENT ALAIN40FRA2:30:315:02 11.96116M40CONTEVILLE LES BOULOGNE
552.822DOUBLET LIONEL41FRA2:30:325:02 11.96117M40LILLERS
553.1323DEBOVE MICHEL45FRA2:30:325:02 11.96130M45CONDETTE
554.1215FSODEN SYLVIE45FRA2:30:325:02 11.968F45BOULOGNE SUR MER
555.735FDAVENPORT NICOLA34BEL2:30:395:02 11.955SEFBRUSSELS
556.1824NOPERE Stehane46BEL2:30:405:02 11.95131M45
557.2099IMBERT Sven36BEL2:30:445:02 11.9489M35
558.1023WALRAVENS MARIO35BEL2:30:455:02 11.9490M35VILVOORDE
559.1267VISSERS PETER12BEL2:30:465:02 11.9498SEHVOSSELAAR
560.1017VAN DEN BOSSCHE DAVID35BEL2:30:475:02 11.9491M35OPWIJK
561.344DELVOY JOERI33BEL2:30:475:02 11.9499SEHZINGEM
562.123VERHULST TOM27BEL2:30:535:02 11.93100SEHSINT-NIKLAAS
563.1239REYNDERS RUDY48BEL2:30:555:02 11.93132M45LAAKDAL
564.230VAN PEER MARC38BEL2:30:585:02 11.9292M35VOSSELAAR
565.641WASSEVELD HARRY40NLD2:30:585:02 11.92118M40BERKEL-ENSCHOT
566.1085DE BEUKELAER JOS58NLD2:31:045:03 11.9215M55OSSENDRECHT
567.1543VANDENBULCKE NAUSIKAA45BEL2:31:175:03 11.90133M45SCHOTEN
568.2089F0CHOA Maria49BEL2:31:175:03 11.909F45
569.2304NELIS JAN43BEL2:31:225:03 11.89119M40KRUIBEKE
570.159SEGERS HERWIG47BEL2:31:315:04 11.88134M45BIERBEEK
571.1507BORGHIJS WIM32BEL2:31:345:04 11.88101SEHPUURS
572.660VAN DER LINDE ERWIN36NLD2:31:345:04 11.8893M35VLISSINGEN
573.2426FPION INGE37BEL2:31:385:04 11.875F35MERCHTEM
574.1560VERBEKE Edmond53BEL2:31:385:04 11.8758M50
575.1476BRUGGEMAN GEERT48BEL2:31:385:04 11.87135M45BRUGGE
576.1448MOENS DANNY50BEL2:31:395:04 11.8759M50SCHOTEN
577.1307VAN DONINCK KOEN44BEL2:31:485:04 11.86120M40HOOGSTRATEN
578.2347VAN GYSEGEM RIK47BEL2:31:485:04 11.86136M45BOECHOUT
579.2057DE MEULDER Kim37BEL2:31:495:04 11.8694M35
580.963VANMALDEGEM MARC66BEL2:31:595:04 11.843M65OUDENAARDE
581.542GOETHALS GEERT45BEL2:32:015:05 11.84137M45EVERGEM
582.2049BOSMANS Erik50BEL2:32:125:05 11.8360M50
583.1008TATNGA NGATCHA VALENTIN40BEL2:32:155:05 11.82121M40COURT-SAINT-ETIENNE
584.2375MAES BART38BEL2:32:165:05 11.8295M35LIER
585.1195DELBART MICHEL51BEL2:32:175:05 11.8261M50ALKEN
586.2082VAN CAMP Dirk46BEL2:32:325:06 11.80138M45
587.237PAUL OLIVER37GER2:32:375:06 11.8096M35DUSSELDORF
588.993WESDORP DIMITRI41NLD2:32:405:06 11.79122M40AMSTERDAM
589.295SUTIL DANIEL31GER2:32:435:06 11.79102SEHMUNCHEN
590.251VAN DEN HEUVEL TOM36BEL2:32:435:06 11.7997M35MUNCHEN
591.1822STAS Philippe44BEL2:32:465:06 11.78123M40
592.921ADRIAENSENS DIRK54BEL2:32:515:06 11.7862M50SINT-NIKLAAS
593.335VERVOORT NICK31BEL2:32:555:06 11.77103SEHHEIST-OP-DEN-BERG
594.2098YUKLER Yusuf53BEL2:32:575:06 11.7763M50
595.702KINDERMANS JOHAN48BEL2:33:025:07 11.76139M45BERG-KAMPENHOUT
596.717TILLIEUX GUY60BEL2:33:045:07 11.768M60HASSELT
597.1386PAENEN IVO64BEL2:33:055:07 11.769M60ZOERSEL
598.875SEGUIN DIDIER46FRA2:33:065:07 11.76140M45OUTREAU
599.1508CLAUS TOM42BEL2:33:115:07 11.75124M40DEURNE (ANTWERPEN)
600.2365SCHENCK TIM26BEL2:33:185:07 11.74104SEHKONINGSHOOIKT
DNF: abandon; DSQ: disqualifié; Vitesse en km/h
ChronoRace - Electronic Timing - www.chronorace.be